sensor_id;sensor_type;location;lat;lon;timestamp;P1;durP1;ratioP1;P2;durP2;ratioP2
74656;SDS011;63185;45.642;13.764;2023-04-19T00:01:31;2.38;;;1.42;;
74656;SDS011;63185;45.642;13.764;2023-04-19T00:03:57;2.72;;;1.42;;
74656;SDS011;63185;45.642;13.764;2023-04-19T00:06:23;2.22;;;1.13;;
74656;SDS011;63185;45.642;13.764;2023-04-19T00:08:50;2.33;;;1.48;;
74656;SDS011;63185;45.642;13.764;2023-04-19T00:11:16;2.13;;;1.10;;
74656;SDS011;63185;45.642;13.764;2023-04-19T00:13:41;3.53;;;1.13;;
74656;SDS011;63185;45.642;13.764;2023-04-19T00:16:07;2.05;;;1.20;;
74656;SDS011;63185;45.642;13.764;2023-04-19T00:18:33;2.72;;;1.52;;
74656;SDS011;63185;45.642;13.764;2023-04-19T00:20:59;2.35;;;1.33;;
74656;SDS011;63185;45.642;13.764;2023-04-19T00:23:26;4.15;;;1.40;;
74656;SDS011;63185;45.642;13.764;2023-04-19T00:25:52;3.13;;;1.70;;
74656;SDS011;63185;45.642;13.764;2023-04-19T00:28:17;2.65;;;1.25;;
74656;SDS011;63185;45.642;13.764;2023-04-19T00:30:43;2.50;;;1.38;;
74656;SDS011;63185;45.642;13.764;2023-04-19T00:33:09;2.10;;;1.20;;
74656;SDS011;63185;45.642;13.764;2023-04-19T00:35:39;1.70;;;1.30;;
74656;SDS011;63185;45.642;13.764;2023-04-19T00:38:08;2.28;;;1.20;;
74656;SDS011;63185;45.642;13.764;2023-04-19T00:40:34;2.78;;;1.35;;
74656;SDS011;63185;45.642;13.764;2023-04-19T00:43:01;1.90;;;1.10;;
74656;SDS011;63185;45.642;13.764;2023-04-19T00:45:27;3.45;;;1.33;;
74656;SDS011;63185;45.642;13.764;2023-04-19T00:47:53;2.25;;;1.30;;
74656;SDS011;63185;45.642;13.764;2023-04-19T00:50:19;3.20;;;1.13;;
74656;SDS011;63185;45.642;13.764;2023-04-19T00:52:46;2.80;;;1.60;;
74656;SDS011;63185;45.642;13.764;2023-04-19T00:55:12;3.17;;;1.15;;
74656;SDS011;63185;45.642;13.764;2023-04-19T00:57:38;2.40;;;1.23;;
74656;SDS011;63185;45.642;13.764;2023-04-19T01:00:04;3.10;;;1.35;;
74656;SDS011;63185;45.642;13.764;2023-04-19T01:02:32;2.85;;;1.17;;
74656;SDS011;63185;45.642;13.764;2023-04-19T01:04:58;2.53;;;1.10;;
74656;SDS011;63185;45.642;13.764;2023-04-19T01:07:23;3.15;;;1.17;;
74656;SDS011;63185;45.642;13.764;2023-04-19T01:09:49;2.20;;;1.10;;
74656;SDS011;63185;45.642;13.764;2023-04-19T01:12:15;2.00;;;0.95;;
74656;SDS011;63185;45.642;13.764;2023-04-19T01:14:41;2.05;;;1.25;;
74656;SDS011;63185;45.642;13.764;2023-04-19T01:17:06;2.08;;;0.95;;
74656;SDS011;63185;45.642;13.764;2023-04-19T01:19:32;2.97;;;1.27;;
74656;SDS011;63185;45.642;13.764;2023-04-19T01:21:59;2.58;;;1.55;;
74656;SDS011;63185;45.642;13.764;2023-04-19T01:24:27;2.85;;;1.10;;
74656;SDS011;63185;45.642;13.764;2023-04-19T01:26:52;1.58;;;0.98;;
74656;SDS011;63185;45.642;13.764;2023-04-19T01:29:18;2.33;;;1.00;;
74656;SDS011;63185;45.642;13.764;2023-04-19T01:31:46;3.15;;;2.10;;
74656;SDS011;63185;45.642;13.764;2023-04-19T01:34:15;4.13;;;2.05;;
74656;SDS011;63185;45.642;13.764;2023-04-19T01:36:41;2.08;;;1.27;;
74656;SDS011;63185;45.642;13.764;2023-04-19T01:39:07;3.08;;;1.25;;
74656;SDS011;63185;45.642;13.764;2023-04-19T01:41:32;2.38;;;1.10;;
74656;SDS011;63185;45.642;13.764;2023-04-19T01:43:58;2.72;;;1.10;;
74656;SDS011;63185;45.642;13.764;2023-04-19T01:46:24;2.22;;;1.35;;
74656;SDS011;63185;45.642;13.764;2023-04-19T01:48:50;3.67;;;1.10;;
74656;SDS011;63185;45.642;13.764;2023-04-19T01:51:16;1.95;;;1.20;;
74656;SDS011;63185;45.642;13.764;2023-04-19T01:53:42;3.80;;;1.13;;
74656;SDS011;63185;45.642;13.764;2023-04-19T01:56:07;2.58;;;1.45;;
74656;SDS011;63185;45.642;13.764;2023-04-19T01:58:33;1.77;;;1.10;;
74656;SDS011;63185;45.642;13.764;2023-04-19T02:00:59;1.65;;;1.10;;
74656;SDS011;63185;45.642;13.764;2023-04-19T02:03:25;2.25;;;1.20;;
74656;SDS011;63185;45.642;13.764;2023-04-19T02:05:50;2.80;;;1.40;;
74656;SDS011;63185;45.642;13.764;2023-04-19T02:08:16;3.35;;;1.40;;
74656;SDS011;63185;45.642;13.764;2023-04-19T02:10:42;2.20;;;1.13;;
74656;SDS011;63185;45.642;13.764;2023-04-19T02:13:07;1.63;;;1.02;;
74656;SDS011;63185;45.642;13.764;2023-04-19T02:15:35;1.88;;;1.10;;
74656;SDS011;63185;45.642;13.764;2023-04-19T02:18:01;1.92;;;1.30;;
74656;SDS011;63185;45.642;13.764;2023-04-19T02:20:30;4.20;;;1.75;;
74656;SDS011;63185;45.642;13.764;2023-04-19T02:22:56;1.73;;;0.90;;
74656;SDS011;63185;45.642;13.764;2023-04-19T02:25:22;2.35;;;1.33;;
74656;SDS011;63185;45.642;13.764;2023-04-19T02:27:47;3.47;;;1.30;;
74656;SDS011;63185;45.642;13.764;2023-04-19T02:30:13;3.65;;;1.40;;
74656;SDS011;63185;45.642;13.764;2023-04-19T02:32:39;2.75;;;1.10;;
74656;SDS011;63185;45.642;13.764;2023-04-19T02:35:05;2.38;;;1.10;;
74656;SDS011;63185;45.642;13.764;2023-04-19T02:37:31;2.90;;;1.35;;
74656;SDS011;63185;45.642;13.764;2023-04-19T02:39:57;2.78;;;1.60;;
74656;SDS011;63185;45.642;13.764;2023-04-19T02:42:22;2.83;;;1.65;;
74656;SDS011;63185;45.642;13.764;2023-04-19T02:44:48;3.63;;;1.90;;
74656;SDS011;63185;45.642;13.764;2023-04-19T02:47:14;3.25;;;1.50;;
74656;SDS011;63185;45.642;13.764;2023-04-19T02:49:39;2.35;;;1.40;;
74656;SDS011;63185;45.642;13.764;2023-04-19T02:52:06;2.40;;;1.40;;
74656;SDS011;63185;45.642;13.764;2023-04-19T02:54:33;2.03;;;1.13;;
74656;SDS011;63185;45.642;13.764;2023-04-19T02:56:58;3.47;;;1.45;;
74656;SDS011;63185;45.642;13.764;2023-04-19T02:59:25;4.50;;;1.20;;
74656;SDS011;63185;45.642;13.764;2023-04-19T03:01:51;2.92;;;1.13;;
74656;SDS011;63185;45.642;13.764;2023-04-19T03:04:16;2.53;;;1.67;;
74656;SDS011;63185;45.642;13.764;2023-04-19T03:06:42;4.22;;;2.30;;
74656;SDS011;63185;45.642;13.764;2023-04-19T03:09:08;3.25;;;1.48;;
74656;SDS011;63185;45.642;13.764;2023-04-19T03:11:34;2.42;;;1.40;;
74656;SDS011;63185;45.642;13.764;2023-04-19T03:14:01;2.55;;;1.30;;
74656;SDS011;63185;45.642;13.764;2023-04-19T03:16:26;4.88;;;1.75;;
74656;SDS011;63185;45.642;13.764;2023-04-19T03:18:54;2.55;;;1.30;;
74656;SDS011;63185;45.642;13.764;2023-04-19T03:21:20;3.70;;;1.30;;
74656;SDS011;63185;45.642;13.764;2023-04-19T03:23:46;3.15;;;1.52;;
74656;SDS011;63185;45.642;13.764;2023-04-19T03:26:11;5.30;;;1.70;;
74656;SDS011;63185;45.642;13.764;2023-04-19T03:28:37;2.38;;;1.45;;
74656;SDS011;63185;45.642;13.764;2023-04-19T03:31:03;3.10;;;1.85;;
74656;SDS011;63185;45.642;13.764;2023-04-19T03:33:28;2.97;;;1.50;;
74656;SDS011;63185;45.642;13.764;2023-04-19T03:35:54;4.50;;;1.98;;
74656;SDS011;63185;45.642;13.764;2023-04-19T03:38:20;3.17;;;1.13;;
74656;SDS011;63185;45.642;13.764;2023-04-19T03:40:46;3.92;;;1.70;;
74656;SDS011;63185;45.642;13.764;2023-04-19T03:43:12;3.35;;;1.55;;
74656;SDS011;63185;45.642;13.764;2023-04-19T03:45:38;4.72;;;1.60;;
74656;SDS011;63185;45.642;13.764;2023-04-19T03:48:03;4.90;;;1.70;;
74656;SDS011;63185;45.642;13.764;2023-04-19T03:50:29;3.60;;;1.45;;
74656;SDS011;63185;45.642;13.764;2023-04-19T03:52:55;4.47;;;1.60;;
74656;SDS011;63185;45.642;13.764;2023-04-19T03:55:20;3.92;;;1.42;;
74656;SDS011;63185;45.642;13.764;2023-04-19T03:57:46;2.83;;;1.58;;
74656;SDS011;63185;45.642;13.764;2023-04-19T04:00:12;2.45;;;1.27;;
74656;SDS011;63185;45.642;13.764;2023-04-19T04:02:38;2.53;;;1.33;;
74656;SDS011;63185;45.642;13.764;2023-04-19T04:05:05;3.65;;;1.63;;
74656;SDS011;63185;45.642;13.764;2023-04-19T04:07:31;2.58;;;1.50;;
74656;SDS011;63185;45.642;13.764;2023-04-19T04:09:56;3.47;;;1.30;;
74656;SDS011;63185;45.642;13.764;2023-04-19T04:12:22;4.15;;;1.52;;
74656;SDS011;63185;45.642;13.764;2023-04-19T04:14:48;3.25;;;1.63;;
74656;SDS011;63185;45.642;13.764;2023-04-19T04:17:13;3.53;;;1.52;;
74656;SDS011;63185;45.642;13.764;2023-04-19T04:19:39;3.25;;;1.63;;
74656;SDS011;63185;45.642;13.764;2023-04-19T04:22:05;4.10;;;1.38;;
74656;SDS011;63185;45.642;13.764;2023-04-19T04:24:36;3.08;;;1.48;;
74656;SDS011;63185;45.642;13.764;2023-04-19T04:27:02;3.28;;;1.60;;
74656;SDS011;63185;45.642;13.764;2023-04-19T04:29:28;3.78;;;1.67;;
74656;SDS011;63185;45.642;13.764;2023-04-19T04:31:56;4.20;;;1.60;;
74656;SDS011;63185;45.642;13.764;2023-04-19T04:34:22;3.13;;;1.60;;
74656;SDS011;63185;45.642;13.764;2023-04-19T04:36:48;4.13;;;1.50;;
74656;SDS011;63185;45.642;13.764;2023-04-19T04:39:14;2.97;;;1.77;;
74656;SDS011;63185;45.642;13.764;2023-04-19T04:41:40;3.97;;;1.60;;
74656;SDS011;63185;45.642;13.764;2023-04-19T04:44:06;3.15;;;1.77;;
74656;SDS011;63185;45.642;13.764;2023-04-19T04:46:33;4.95;;;1.70;;
74656;SDS011;63185;45.642;13.764;2023-04-19T04:48:59;3.20;;;1.77;;
74656;SDS011;63185;45.642;13.764;2023-04-19T04:51:25;2.42;;;1.50;;
74656;SDS011;63185;45.642;13.764;2023-04-19T04:53:51;2.88;;;1.67;;
74656;SDS011;63185;45.642;13.764;2023-04-19T04:56:16;3.05;;;1.60;;
74656;SDS011;63185;45.642;13.764;2023-04-19T04:58:42;3.70;;;1.70;;
74656;SDS011;63185;45.642;13.764;2023-04-19T05:01:08;3.65;;;1.67;;
74656;SDS011;63185;45.642;13.764;2023-04-19T05:03:33;3.58;;;1.50;;
74656;SDS011;63185;45.642;13.764;2023-04-19T05:05:59;4.95;;;1.63;;
74656;SDS011;63185;45.642;13.764;2023-04-19T05:08:25;2.67;;;1.35;;
74656;SDS011;63185;45.642;13.764;2023-04-19T05:10:51;2.58;;;1.50;;
74656;SDS011;63185;45.642;13.764;2023-04-19T05:13:17;3.92;;;1.67;;
74656;SDS011;63185;45.642;13.764;2023-04-19T05:15:42;2.83;;;1.70;;
74656;SDS011;63185;45.642;13.764;2023-04-19T05:18:08;3.03;;;2.20;;
74656;SDS011;63185;45.642;13.764;2023-04-19T05:20:34;2.70;;;1.40;;
74656;SDS011;63185;45.642;13.764;2023-04-19T05:22:59;2.45;;;1.38;;
74656;SDS011;63185;45.642;13.764;2023-04-19T05:25:28;2.63;;;1.63;;
74656;SDS011;63185;45.642;13.764;2023-04-19T05:27:54;7.50;;;1.73;;
74656;SDS011;63185;45.642;13.764;2023-04-19T05:30:20;4.35;;;1.70;;
74656;SDS011;63185;45.642;13.764;2023-04-19T05:32:46;2.92;;;1.80;;
74656;SDS011;63185;45.642;13.764;2023-04-19T05:35:11;3.08;;;1.63;;
74656;SDS011;63185;45.642;13.764;2023-04-19T05:37:37;4.43;;;1.60;;
74656;SDS011;63185;45.642;13.764;2023-04-19T05:40:04;4.47;;;1.77;;
74656;SDS011;63185;45.642;13.764;2023-04-19T05:42:34;2.63;;;1.60;;
74656;SDS011;63185;45.642;13.764;2023-04-19T05:44:59;4.00;;;1.85;;
74656;SDS011;63185;45.642;13.764;2023-04-19T05:47:25;3.10;;;1.77;;
74656;SDS011;63185;45.642;13.764;2023-04-19T05:49:51;4.30;;;1.75;;
74656;SDS011;63185;45.642;13.764;2023-04-19T05:52:17;3.92;;;1.90;;
74656;SDS011;63185;45.642;13.764;2023-04-19T05:54:42;4.32;;;1.60;;
74656;SDS011;63185;45.642;13.764;2023-04-19T05:57:09;5.55;;;1.70;;
74656;SDS011;63185;45.642;13.764;2023-04-19T05:59:34;3.80;;;1.70;;
74656;SDS011;63185;45.642;13.764;2023-04-19T06:02:00;3.50;;;1.65;;
74656;SDS011;63185;45.642;13.764;2023-04-19T06:04:26;5.93;;;2.08;;
74656;SDS011;63185;45.642;13.764;2023-04-19T06:06:52;3.92;;;1.67;;
74656;SDS011;63185;45.642;13.764;2023-04-19T06:09:17;3.15;;;1.67;;
74656;SDS011;63185;45.642;13.764;2023-04-19T06:11:43;4.15;;;1.65;;
74656;SDS011;63185;45.642;13.764;2023-04-19T06:14:10;5.15;;;1.60;;
74656;SDS011;63185;45.642;13.764;2023-04-19T06:16:37;4.38;;;1.83;;
74656;SDS011;63185;45.642;13.764;2023-04-19T06:19:04;4.35;;;1.73;;
74656;SDS011;63185;45.642;13.764;2023-04-19T06:21:30;3.72;;;1.55;;
74656;SDS011;63185;45.642;13.764;2023-04-19T06:23:56;2.67;;;1.40;;
74656;SDS011;63185;45.642;13.764;2023-04-19T06:26:22;5.15;;;1.70;;
74656;SDS011;63185;45.642;13.764;2023-04-19T06:28:48;5.60;;;1.75;;
74656;SDS011;63185;45.642;13.764;2023-04-19T06:31:13;2.95;;;1.40;;
74656;SDS011;63185;45.642;13.764;2023-04-19T06:33:39;3.78;;;1.77;;
74656;SDS011;63185;45.642;13.764;2023-04-19T06:36:05;3.15;;;1.65;;
74656;SDS011;63185;45.642;13.764;2023-04-19T06:38:31;3.63;;;1.48;;
74656;SDS011;63185;45.642;13.764;2023-04-19T06:40:57;3.72;;;1.42;;
74656;SDS011;63185;45.642;13.764;2023-04-19T06:43:22;3.80;;;1.40;;
74656;SDS011;63185;45.642;13.764;2023-04-19T06:45:48;6.68;;;1.92;;
74656;SDS011;63185;45.642;13.764;2023-04-19T06:48:21;2.92;;;1.65;;
74656;SDS011;63185;45.642;13.764;2023-04-19T06:50:47;5.03;;;1.60;;
74656;SDS011;63185;45.642;13.764;2023-04-19T06:53:13;3.72;;;1.80;;
74656;SDS011;63185;45.642;13.764;2023-04-19T06:55:38;3.78;;;2.10;;
74656;SDS011;63185;45.642;13.764;2023-04-19T06:58:04;6.15;;;1.88;;
74656;SDS011;63185;45.642;13.764;2023-04-19T07:00:34;4.45;;;1.50;;
74656;SDS011;63185;45.642;13.764;2023-04-19T07:03:00;3.80;;;2.08;;
74656;SDS011;63185;45.642;13.764;2023-04-19T07:05:26;3.83;;;1.83;;
74656;SDS011;63185;45.642;13.764;2023-04-19T07:07:52;8.02;;;1.42;;
74656;SDS011;63185;45.642;13.764;2023-04-19T07:10:17;4.65;;;1.63;;
74656;SDS011;63185;45.642;13.764;2023-04-19T07:12:43;4.45;;;1.70;;
74656;SDS011;63185;45.642;13.764;2023-04-19T07:15:09;4.40;;;1.38;;
74656;SDS011;63185;45.642;13.764;2023-04-19T07:17:35;3.42;;;1.65;;
74656;SDS011;63185;45.642;13.764;2023-04-19T07:20:02;3.85;;;1.75;;
74656;SDS011;63185;45.642;13.764;2023-04-19T07:22:29;4.63;;;1.92;;
74656;SDS011;63185;45.642;13.764;2023-04-19T07:24:54;4.95;;;2.10;;
74656;SDS011;63185;45.642;13.764;2023-04-19T07:27:20;4.97;;;2.00;;
74656;SDS011;63185;45.642;13.764;2023-04-19T07:29:46;4.15;;;1.77;;
74656;SDS011;63185;45.642;13.764;2023-04-19T07:32:11;5.45;;;2.10;;
74656;SDS011;63185;45.642;13.764;2023-04-19T07:34:40;5.30;;;1.70;;
74656;SDS011;63185;45.642;13.764;2023-04-19T07:37:07;4.53;;;1.50;;
74656;SDS011;63185;45.642;13.764;2023-04-19T07:39:33;4.82;;;1.80;;
74656;SDS011;63185;45.642;13.764;2023-04-19T07:41:59;5.50;;;1.83;;
74656;SDS011;63185;45.642;13.764;2023-04-19T07:44:27;4.95;;;1.80;;
74656;SDS011;63185;45.642;13.764;2023-04-19T07:46:53;4.25;;;1.98;;
74656;SDS011;63185;45.642;13.764;2023-04-19T07:49:18;5.25;;;1.80;;
74656;SDS011;63185;45.642;13.764;2023-04-19T07:51:44;4.38;;;1.95;;
74656;SDS011;63185;45.642;13.764;2023-04-19T07:54:10;4.07;;;2.17;;
74656;SDS011;63185;45.642;13.764;2023-04-19T07:56:36;7.20;;;2.15;;
74656;SDS011;63185;45.642;13.764;2023-04-19T07:59:02;6.35;;;1.98;;
74656;SDS011;63185;45.642;13.764;2023-04-19T08:01:28;6.25;;;1.92;;
74656;SDS011;63185;45.642;13.764;2023-04-19T08:03:54;5.95;;;2.28;;
74656;SDS011;63185;45.642;13.764;2023-04-19T08:06:19;9.30;;;1.83;;
74656;SDS011;63185;45.642;13.764;2023-04-19T08:08:46;5.88;;;1.92;;
74656;SDS011;63185;45.642;13.764;2023-04-19T08:11:12;4.05;;;1.90;;
74656;SDS011;63185;45.642;13.764;2023-04-19T08:13:37;5.80;;;2.05;;
74656;SDS011;63185;45.642;13.764;2023-04-19T08:16:03;4.03;;;1.85;;
74656;SDS011;63185;45.642;13.764;2023-04-19T08:18:29;3.60;;;1.95;;
74656;SDS011;63185;45.642;13.764;2023-04-19T08:20:55;4.53;;;1.80;;
74656;SDS011;63185;45.642;13.764;2023-04-19T08:23:22;7.13;;;2.30;;
74656;SDS011;63185;45.642;13.764;2023-04-19T08:25:47;6.10;;;2.60;;
74656;SDS011;63185;45.642;13.764;2023-04-19T08:28:13;4.40;;;2.15;;
74656;SDS011;63185;45.642;13.764;2023-04-19T08:30:39;6.15;;;2.10;;
74656;SDS011;63185;45.642;13.764;2023-04-19T08:33:05;4.53;;;2.38;;
74656;SDS011;63185;45.642;13.764;2023-04-19T08:35:31;6.93;;;2.45;;
74656;SDS011;63185;45.642;13.764;2023-04-19T08:37:59;4.57;;;2.22;;
74656;SDS011;63185;45.642;13.764;2023-04-19T08:40:25;4.18;;;2.20;;
74656;SDS011;63185;45.642;13.764;2023-04-19T08:42:50;8.38;;;2.40;;
74656;SDS011;63185;45.642;13.764;2023-04-19T08:45:16;8.32;;;2.63;;
74656;SDS011;63185;45.642;13.764;2023-04-19T08:47:45;6.68;;;2.65;;
74656;SDS011;63185;45.642;13.764;2023-04-19T08:50:11;4.68;;;2.30;;
74656;SDS011;63185;45.642;13.764;2023-04-19T08:52:37;4.95;;;2.05;;
74656;SDS011;63185;45.642;13.764;2023-04-19T08:55:04;6.65;;;2.45;;
74656;SDS011;63185;45.642;13.764;2023-04-19T08:57:32;7.57;;;2.67;;
74656;SDS011;63185;45.642;13.764;2023-04-19T08:59:59;5.05;;;2.10;;
74656;SDS011;63185;45.642;13.764;2023-04-19T09:02:25;4.93;;;2.50;;
74656;SDS011;63185;45.642;13.764;2023-04-19T09:04:51;7.30;;;2.10;;
74656;SDS011;63185;45.642;13.764;2023-04-19T09:07:26;5.95;;;2.63;;
74656;SDS011;63185;45.642;13.764;2023-04-19T09:10:03;4.68;;;2.45;;
74656;SDS011;63185;45.642;13.764;2023-04-19T09:12:30;7.10;;;2.50;;
74656;SDS011;63185;45.642;13.764;2023-04-19T09:14:56;3.63;;;2.28;;
74656;SDS011;63185;45.642;13.764;2023-04-19T09:17:22;5.38;;;2.17;;
74656;SDS011;63185;45.642;13.764;2023-04-19T09:19:48;6.43;;;2.35;;
74656;SDS011;63185;45.642;13.764;2023-04-19T09:22:14;5.20;;;2.17;;
74656;SDS011;63185;45.642;13.764;2023-04-19T09:24:40;7.45;;;2.47;;
74656;SDS011;63185;45.642;13.764;2023-04-19T09:27:06;5.22;;;2.10;;
74656;SDS011;63185;45.642;13.764;2023-04-19T09:29:31;5.90;;;1.88;;
74656;SDS011;63185;45.642;13.764;2023-04-19T09:31:57;2.50;;;1.80;;
74656;SDS011;63185;45.642;13.764;2023-04-19T09:34:23;3.63;;;1.48;;
74656;SDS011;63185;45.642;13.764;2023-04-19T09:36:49;4.18;;;1.80;;
74656;SDS011;63185;45.642;13.764;2023-04-19T09:39:31;2.55;;;1.65;;
74656;SDS011;63185;45.642;13.764;2023-04-19T09:41:57;6.05;;;2.00;;
74656;SDS011;63185;45.642;13.764;2023-04-19T09:44:22;3.50;;;1.85;;
74656;SDS011;63185;45.642;13.764;2023-04-19T09:46:48;6.95;;;2.17;;
74656;SDS011;63185;45.642;13.764;2023-04-19T09:49:17;4.90;;;2.28;;
74656;SDS011;63185;45.642;13.764;2023-04-19T09:51:53;4.90;;;1.92;;
74656;SDS011;63185;45.642;13.764;2023-04-19T09:54:20;3.00;;;2.00;;
74656;SDS011;63185;45.642;13.764;2023-04-19T09:56:47;4.78;;;1.70;;
74656;SDS011;63185;45.642;13.764;2023-04-19T09:59:14;4.68;;;1.70;;
74656;SDS011;63185;45.642;13.764;2023-04-19T10:01:44;4.68;;;1.90;;
74656;SDS011;63185;45.642;13.764;2023-04-19T10:04:17;3.60;;;2.03;;
74656;SDS011;63185;45.642;13.764;2023-04-19T10:06:47;6.82;;;2.10;;
74656;SDS011;63185;45.642;13.764;2023-04-19T10:09:14;3.85;;;2.15;;
74656;SDS011;63185;45.642;13.764;2023-04-19T10:11:43;5.50;;;2.10;;
74656;SDS011;63185;45.642;13.764;2023-04-19T10:14:13;6.38;;;1.90;;
74656;SDS011;63185;45.642;13.764;2023-04-19T10:16:40;5.45;;;1.92;;
74656;SDS011;63185;45.642;13.764;2023-04-19T10:19:13;3.75;;;1.98;;
74656;SDS011;63185;45.642;13.764;2023-04-19T10:21:41;4.32;;;2.03;;
74656;SDS011;63185;45.642;13.764;2023-04-19T10:24:07;2.88;;;1.90;;
74656;SDS011;63185;45.642;13.764;2023-04-19T10:32:28;5.38;;;2.17;;
74656;SDS011;63185;45.642;13.764;2023-04-19T10:35:01;4.80;;;1.98;;
74656;SDS011;63185;45.642;13.764;2023-04-19T10:37:31;3.53;;;2.00;;
74656;SDS011;63185;45.642;13.764;2023-04-19T10:39:57;5.03;;;1.80;;
74656;SDS011;63185;45.642;13.764;2023-04-19T10:42:23;2.78;;;1.95;;
74656;SDS011;63185;45.642;13.764;2023-04-19T10:47:52;3.53;;;2.00;;
74656;SDS011;63185;45.642;13.764;2023-04-19T10:50:17;7.63;;;2.28;;
74656;SDS011;63185;45.642;13.764;2023-04-19T10:52:43;3.00;;;1.73;;
74656;SDS011;63185;45.642;13.764;2023-04-19T10:55:09;4.00;;;1.98;;
74656;SDS011;63185;45.642;13.764;2023-04-19T11:00:31;3.80;;;1.77;;
74656;SDS011;63185;45.642;13.764;2023-04-19T11:03:50;5.20;;;2.05;;
74656;SDS011;63185;45.642;13.764;2023-04-19T11:06:14;3.25;;;1.70;;
74656;SDS011;63185;45.642;13.764;2023-04-19T11:08:43;4.80;;;2.10;;
74656;SDS011;63185;45.642;13.764;2023-04-19T11:11:09;6.85;;;2.40;;
74656;SDS011;63185;45.642;13.764;2023-04-19T11:13:35;4.75;;;2.00;;
74656;SDS011;63185;45.642;13.764;2023-04-19T11:16:06;3.55;;;1.92;;
74656;SDS011;63185;45.642;13.764;2023-04-19T11:18:33;4.45;;;2.00;;
74656;SDS011;63185;45.642;13.764;2023-04-19T11:20:58;3.97;;;1.92;;
74656;SDS011;63185;45.642;13.764;2023-04-19T11:23:25;3.72;;;2.08;;
74656;SDS011;63185;45.642;13.764;2023-04-19T11:25:51;4.00;;;2.15;;
74656;SDS011;63185;45.642;13.764;2023-04-19T11:28:17;4.80;;;1.98;;
74656;SDS011;63185;45.642;13.764;2023-04-19T11:30:45;9.00;;;2.53;;
74656;SDS011;63185;45.642;13.764;2023-04-19T11:33:12;4.50;;;2.55;;
74656;SDS011;63185;45.642;13.764;2023-04-19T11:35:38;4.25;;;2.30;;
74656;SDS011;63185;45.642;13.764;2023-04-19T11:38:03;6.07;;;2.55;;
74656;SDS011;63185;45.642;13.764;2023-04-19T11:40:30;5.72;;;2.30;;
74656;SDS011;63185;45.642;13.764;2023-04-19T11:42:57;4.57;;;2.47;;
74656;SDS011;63185;45.642;13.764;2023-04-19T11:47:57;3.50;;;1.90;;
74656;SDS011;63185;45.642;13.764;2023-04-19T11:50:36;4.80;;;1.92;;
74656;SDS011;63185;45.642;13.764;2023-04-19T11:53:09;4.07;;;1.90;;
74656;SDS011;63185;45.642;13.764;2023-04-19T11:56:02;5.38;;;2.22;;
74656;SDS011;63185;45.642;13.764;2023-04-19T11:58:30;4.22;;;1.90;;
74656;SDS011;63185;45.642;13.764;2023-04-19T12:01:02;3.75;;;1.90;;
74656;SDS011;63185;45.642;13.764;2023-04-19T12:03:30;4.90;;;2.15;;
74656;SDS011;63185;45.642;13.764;2023-04-19T12:06:00;4.25;;;2.50;;
74656;SDS011;63185;45.642;13.764;2023-04-19T12:08:34;5.20;;;2.30;;
74656;SDS011;63185;45.642;13.764;2023-04-19T12:11:01;3.42;;;2.15;;
74656;SDS011;63185;45.642;13.764;2023-04-19T12:13:28;4.43;;;2.17;;
74656;SDS011;63185;45.642;13.764;2023-04-19T12:15:55;9.30;;;2.40;;
74656;SDS011;63185;45.642;13.764;2023-04-19T12:18:21;3.85;;;2.20;;
74656;SDS011;63185;45.642;13.764;2023-04-19T12:20:47;7.63;;;2.38;;
74656;SDS011;63185;45.642;13.764;2023-04-19T12:23:15;4.45;;;2.20;;
74656;SDS011;63185;45.642;13.764;2023-04-19T12:25:43;5.78;;;2.50;;
74656;SDS011;63185;45.642;13.764;2023-04-19T12:28:11;5.87;;;2.27;;
74656;SDS011;63185;45.642;13.764;2023-04-19T12:30:37;6.70;;;2.58;;
74656;SDS011;63185;45.642;13.764;2023-04-19T12:33:04;6.68;;;2.35;;
74656;SDS011;63185;45.642;13.764;2023-04-19T12:35:30;4.00;;;2.15;;
74656;SDS011;63185;45.642;13.764;2023-04-19T12:37:57;5.15;;;2.08;;
74656;SDS011;63185;45.642;13.764;2023-04-19T12:40:24;4.75;;;2.83;;
74656;SDS011;63185;45.642;13.764;2023-04-19T12:42:50;4.88;;;2.60;;
74656;SDS011;63185;45.642;13.764;2023-04-19T12:45:17;7.43;;;2.90;;
74656;SDS011;63185;45.642;13.764;2023-04-19T12:47:44;3.95;;;2.95;;
74656;SDS011;63185;45.642;13.764;2023-04-19T12:50:12;7.53;;;3.83;;
74656;SDS011;63185;45.642;13.764;2023-04-19T12:52:38;7.40;;;3.90;;
74656;SDS011;63185;45.642;13.764;2023-04-19T12:55:05;7.40;;;3.60;;
74656;SDS011;63185;45.642;13.764;2023-04-19T12:57:31;7.13;;;4.05;;
74656;SDS011;63185;45.642;13.764;2023-04-19T12:59:57;7.30;;;4.35;;
74656;SDS011;63185;45.642;13.764;2023-04-19T13:02:23;7.18;;;4.13;;
74656;SDS011;63185;45.642;13.764;2023-04-19T13:04:49;9.02;;;4.47;;
74656;SDS011;63185;45.642;13.764;2023-04-19T13:07:15;7.80;;;4.43;;
74656;SDS011;63185;45.642;13.764;2023-04-19T13:09:41;7.63;;;4.40;;
74656;SDS011;63185;45.642;13.764;2023-04-19T13:12:06;7.85;;;4.45;;
74656;SDS011;63185;45.642;13.764;2023-04-19T13:14:32;8.52;;;3.85;;
74656;SDS011;63185;45.642;13.764;2023-04-19T13:16:58;8.98;;;3.92;;
74656;SDS011;63185;45.642;13.764;2023-04-19T13:19:24;5.80;;;2.70;;
74656;SDS011;63185;45.642;13.764;2023-04-19T13:21:50;5.00;;;2.47;;
74656;SDS011;63185;45.642;13.764;2023-04-19T13:24:16;4.63;;;2.45;;
74656;SDS011;63185;45.642;13.764;2023-04-19T13:26:42;9.20;;;5.10;;
74656;SDS011;63185;45.642;13.764;2023-04-19T13:29:10;8.43;;;4.53;;
74656;SDS011;63185;45.642;13.764;2023-04-19T13:31:35;6.28;;;3.65;;
74656;SDS011;63185;45.642;13.764;2023-04-19T13:34:01;8.18;;;3.45;;
74656;SDS011;63185;45.642;13.764;2023-04-19T13:36:27;7.60;;;3.20;;
74656;SDS011;63185;45.642;13.764;2023-04-19T13:38:53;6.53;;;2.65;;
74656;SDS011;63185;45.642;13.764;2023-04-19T13:41:19;4.20;;;2.28;;
74656;SDS011;63185;45.642;13.764;2023-04-19T13:43:45;6.43;;;2.30;;
74656;SDS011;63185;45.642;13.764;2023-04-19T13:46:11;6.35;;;3.00;;
74656;SDS011;63185;45.642;13.764;2023-04-19T13:48:37;7.13;;;2.88;;
74656;SDS011;63185;45.642;13.764;2023-04-19T13:51:02;8.10;;;3.17;;
74656;SDS011;63185;45.642;13.764;2023-04-19T13:53:28;5.78;;;2.92;;
74656;SDS011;63185;45.642;13.764;2023-04-19T13:55:54;6.18;;;2.92;;
74656;SDS011;63185;45.642;13.764;2023-04-19T13:58:21;4.93;;;2.80;;
74656;SDS011;63185;45.642;13.764;2023-04-19T14:00:48;6.22;;;2.60;;
74656;SDS011;63185;45.642;13.764;2023-04-19T14:03:15;6.40;;;2.40;;
74656;SDS011;63185;45.642;13.764;2023-04-19T14:05:41;4.68;;;2.35;;
74656;SDS011;63185;45.642;13.764;2023-04-19T14:08:08;7.10;;;3.08;;
74656;SDS011;63185;45.642;13.764;2023-04-19T14:10:34;6.00;;;2.90;;
74656;SDS011;63185;45.642;13.764;2023-04-19T14:13:00;6.18;;;2.78;;
74656;SDS011;63185;45.642;13.764;2023-04-19T14:15:27;8.13;;;3.20;;
74656;SDS011;63185;45.642;13.764;2023-04-19T14:17:52;6.70;;;2.83;;
74656;SDS011;63185;45.642;13.764;2023-04-19T14:20:18;7.32;;;3.15;;
74656;SDS011;63185;45.642;13.764;2023-04-19T14:22:44;5.97;;;3.10;;
74656;SDS011;63185;45.642;13.764;2023-04-19T14:25:10;6.32;;;3.35;;
74656;SDS011;63185;45.642;13.764;2023-04-19T14:27:39;6.57;;;3.60;;
74656;SDS011;63185;45.642;13.764;2023-04-19T14:30:07;6.10;;;3.50;;
74656;SDS011;63185;45.642;13.764;2023-04-19T14:32:34;6.35;;;3.72;;
74656;SDS011;63185;45.642;13.764;2023-04-19T14:35:00;7.80;;;3.83;;
74656;SDS011;63185;45.642;13.764;2023-04-19T14:37:26;5.78;;;3.33;;
74656;SDS011;63185;45.642;13.764;2023-04-19T14:39:52;6.60;;;3.67;;
74656;SDS011;63185;45.642;13.764;2023-04-19T14:42:18;5.60;;;3.10;;
74656;SDS011;63185;45.642;13.764;2023-04-19T14:44:44;5.47;;;2.47;;